sensor_id;sensor_type;location;lat;lon;timestamp;P1;durP1;ratioP1;P2;durP2;ratioP2
37983;SDS011;64625;50.882;4.376;2022-11-15T00:00:53;28.58;;;17.67;;
37983;SDS011;64625;50.882;4.376;2022-11-15T00:03:20;30.42;;;17.08;;
37983;SDS011;64625;50.882;4.376;2022-11-15T00:05:48;30.52;;;18.83;;
37983;SDS011;64625;50.882;4.376;2022-11-15T00:08:14;29.40;;;19.40;;
37983;SDS011;64625;50.882;4.376;2022-11-15T00:10:40;29.25;;;19.38;;
37983;SDS011;64625;50.882;4.376;2022-11-15T00:13:07;33.95;;;18.45;;
37983;SDS011;64625;50.882;4.376;2022-11-15T00:15:38;37.22;;;19.27;;
37983;SDS011;64625;50.882;4.376;2022-11-15T00:18:06;28.52;;;18.17;;
37983;SDS011;64625;50.882;4.376;2022-11-15T00:20:37;41.35;;;18.98;;
37983;SDS011;64625;50.882;4.376;2022-11-15T00:23:03;26.60;;;17.08;;
37983;SDS011;64625;50.882;4.376;2022-11-15T00:25:30;28.63;;;17.15;;
37983;SDS011;64625;50.882;4.376;2022-11-15T00:27:57;29.75;;;18.95;;
37983;SDS011;64625;50.882;4.376;2022-11-15T00:30:23;31.33;;;20.48;;
37983;SDS011;64625;50.882;4.376;2022-11-15T00:32:49;31.88;;;17.52;;
37983;SDS011;64625;50.882;4.376;2022-11-15T00:35:15;30.13;;;18.25;;
37983;SDS011;64625;50.882;4.376;2022-11-15T00:37:41;33.38;;;18.67;;
37983;SDS011;64625;50.882;4.376;2022-11-15T00:40:07;27.27;;;18.20;;
37983;SDS011;64625;50.882;4.376;2022-11-15T00:42:33;32.83;;;19.20;;
37983;SDS011;64625;50.882;4.376;2022-11-15T00:44:59;39.03;;;20.10;;
37983;SDS011;64625;50.882;4.376;2022-11-15T00:47:25;30.85;;;17.95;;
37983;SDS011;64625;50.882;4.376;2022-11-15T00:49:50;32.35;;;19.85;;
37983;SDS011;64625;50.882;4.376;2022-11-15T00:52:16;29.23;;;18.73;;
37983;SDS011;64625;50.882;4.376;2022-11-15T00:54:44;36.63;;;19.42;;
37983;SDS011;64625;50.882;4.376;2022-11-15T00:57:10;28.17;;;18.30;;
37983;SDS011;64625;50.882;4.376;2022-11-15T00:59:36;27.70;;;19.10;;
37983;SDS011;64625;50.882;4.376;2022-11-15T01:02:02;28.77;;;18.75;;
37983;SDS011;64625;50.882;4.376;2022-11-15T01:04:28;34.63;;;18.85;;
37983;SDS011;64625;50.882;4.376;2022-11-15T01:06:53;35.88;;;20.23;;
37983;SDS011;64625;50.882;4.376;2022-11-15T01:09:19;36.35;;;19.70;;
37983;SDS011;64625;50.882;4.376;2022-11-15T01:11:45;37.25;;;19.45;;
37983;SDS011;64625;50.882;4.376;2022-11-15T01:14:11;32.90;;;20.02;;
37983;SDS011;64625;50.882;4.376;2022-11-15T01:16:36;38.45;;;19.05;;
37983;SDS011;64625;50.882;4.376;2022-11-15T01:19:03;29.77;;;19.85;;
37983;SDS011;64625;50.882;4.376;2022-11-15T01:21:29;37.47;;;20.67;;
37983;SDS011;64625;50.882;4.376;2022-11-15T01:23:55;29.10;;;19.63;;
37983;SDS011;64625;50.882;4.376;2022-11-15T01:26:22;41.60;;;20.50;;
37983;SDS011;64625;50.882;4.376;2022-11-15T01:28:49;29.15;;;19.45;;
37983;SDS011;64625;50.882;4.376;2022-11-15T01:31:17;33.92;;;20.70;;
37983;SDS011;64625;50.882;4.376;2022-11-15T01:33:44;35.25;;;20.27;;
37983;SDS011;64625;50.882;4.376;2022-11-15T01:36:13;27.98;;;19.15;;
37983;SDS011;64625;50.882;4.376;2022-11-15T01:41:15;34.20;;;19.15;;
37983;SDS011;64625;50.882;4.376;2022-11-15T01:43:42;31.60;;;19.35;;
37983;SDS011;64625;50.882;4.376;2022-11-15T01:48:46;30.38;;;20.50;;
37983;SDS011;64625;50.882;4.376;2022-11-15T01:51:13;45.55;;;19.55;;
37983;SDS011;64625;50.882;4.376;2022-11-15T01:53:41;30.92;;;19.15;;
37983;SDS011;64625;50.882;4.376;2022-11-15T01:56:11;38.58;;;21.05;;
37983;SDS011;64625;50.882;4.376;2022-11-15T01:58:41;30.38;;;17.60;;
37983;SDS011;64625;50.882;4.376;2022-11-15T02:01:10;36.67;;;17.80;;
37983;SDS011;64625;50.882;4.376;2022-11-15T02:04:20;31.42;;;16.75;;
37983;SDS011;64625;50.882;4.376;2022-11-15T02:06:31;23.17;;;16.75;;
37983;SDS011;64625;50.882;4.376;2022-11-15T02:08:57;28.83;;;16.63;;
37983;SDS011;64625;50.882;4.376;2022-11-15T02:11:24;26.42;;;16.77;;
37983;SDS011;64625;50.882;4.376;2022-11-15T02:13:50;30.63;;;16.38;;
37983;SDS011;64625;50.882;4.376;2022-11-15T02:33:14;25.52;;;17.83;;
37983;SDS011;64625;50.882;4.376;2022-11-15T02:38:29;31.30;;;16.23;;
37983;SDS011;64625;50.882;4.376;2022-11-15T02:41:04;25.13;;;15.15;;
37983;SDS011;64625;50.882;4.376;2022-11-15T02:43:50;26.58;;;16.60;;
37983;SDS011;64625;50.882;4.376;2022-11-15T02:49:39;25.10;;;16.52;;
37983;SDS011;64625;50.882;4.376;2022-11-15T02:52:16;30.13;;;15.90;;
37983;SDS011;64625;50.882;4.376;2022-11-15T02:54:42;23.65;;;15.80;;
37983;SDS011;64625;50.882;4.376;2022-11-15T02:57:18;26.38;;;14.82;;
37983;SDS011;64625;50.882;4.376;2022-11-15T03:08:30;22.05;;;13.68;;
37983;SDS011;64625;50.882;4.376;2022-11-15T03:11:12;26.35;;;14.55;;
37983;SDS011;64625;50.882;4.376;2022-11-15T03:13:57;28.38;;;15.20;;
37983;SDS011;64625;50.882;4.376;2022-11-15T03:18:51;22.02;;;14.38;;
37983;SDS011;64625;50.882;4.376;2022-11-15T03:21:22;19.35;;;12.52;;
37983;SDS011;64625;50.882;4.376;2022-11-15T03:23:49;21.27;;;11.25;;
37983;SDS011;64625;50.882;4.376;2022-11-15T03:26:17;23.27;;;12.77;;
37983;SDS011;64625;50.882;4.376;2022-11-15T03:28:56;21.00;;;12.52;;
37983;SDS011;64625;50.882;4.376;2022-11-15T03:31:31;21.33;;;11.82;;
37983;SDS011;64625;50.882;4.376;2022-11-15T03:36:56;15.30;;;10.73;;
37983;SDS011;64625;50.882;4.376;2022-11-15T03:39:22;20.02;;;10.60;;
37983;SDS011;64625;50.882;4.376;2022-11-15T03:44:42;21.50;;;11.23;;
37983;SDS011;64625;50.882;4.376;2022-11-15T03:50:01;19.40;;;9.75;;
37983;SDS011;64625;50.882;4.376;2022-11-15T03:52:33;20.60;;;9.65;;
37983;SDS011;64625;50.882;4.376;2022-11-15T03:55:00;11.02;;;8.32;;
37983;SDS011;64625;50.882;4.376;2022-11-15T03:57:28;12.18;;;8.25;;
37983;SDS011;64625;50.882;4.376;2022-11-15T03:59:54;16.67;;;7.63;;
37983;SDS011;64625;50.882;4.376;2022-11-15T04:02:20;14.82;;;8.15;;
37983;SDS011;64625;50.882;4.376;2022-11-15T04:04:46;18.30;;;8.13;;
37983;SDS011;64625;50.882;4.376;2022-11-15T04:07:12;15.40;;;8.15;;
37983;SDS011;64625;50.882;4.376;2022-11-15T04:09:37;9.38;;;7.32;;
37983;SDS011;64625;50.882;4.376;2022-11-15T04:12:23;15.30;;;8.30;;
37983;SDS011;64625;50.882;4.376;2022-11-15T04:14:56;17.30;;;7.57;;
37983;SDS011;64625;50.882;4.376;2022-11-15T04:17:40;18.35;;;8.05;;
37983;SDS011;64625;50.882;4.376;2022-11-15T04:23:00;16.60;;;7.43;;
37983;SDS011;64625;50.882;4.376;2022-11-15T04:25:47;12.45;;;7.65;;
37983;SDS011;64625;50.882;4.376;2022-11-15T04:28:16;12.02;;;7.68;;
37983;SDS011;64625;50.882;4.376;2022-11-15T04:30:42;17.60;;;6.97;;
37983;SDS011;64625;50.882;4.376;2022-11-15T04:33:08;13.57;;;7.15;;
37983;SDS011;64625;50.882;4.376;2022-11-15T04:35:34;14.38;;;7.95;;
37983;SDS011;64625;50.882;4.376;2022-11-15T04:38:00;22.77;;;8.60;;
37983;SDS011;64625;50.882;4.376;2022-11-15T04:40:27;14.43;;;7.30;;
37983;SDS011;64625;50.882;4.376;2022-11-15T04:42:53;13.38;;;6.93;;
37983;SDS011;64625;50.882;4.376;2022-11-15T04:45:19;25.10;;;6.88;;
37983;SDS011;64625;50.882;4.376;2022-11-15T04:47:45;18.40;;;6.65;;
37983;SDS011;64625;50.882;4.376;2022-11-15T04:50:12;18.75;;;7.30;;
37983;SDS011;64625;50.882;4.376;2022-11-15T04:52:40;11.15;;;6.88;;
37983;SDS011;64625;50.882;4.376;2022-11-15T04:55:07;11.23;;;5.80;;
37983;SDS011;64625;50.882;4.376;2022-11-15T04:57:34;17.55;;;7.50;;
37983;SDS011;64625;50.882;4.376;2022-11-15T05:00:01;18.13;;;7.45;;
37983;SDS011;64625;50.882;4.376;2022-11-15T05:02:29;20.92;;;6.38;;
37983;SDS011;64625;50.882;4.376;2022-11-15T05:05:14;15.52;;;6.60;;
37983;SDS011;64625;50.882;4.376;2022-11-15T05:07:40;12.98;;;6.32;;
37983;SDS011;64625;50.882;4.376;2022-11-15T05:10:06;14.85;;;7.00;;
37983;SDS011;64625;50.882;4.376;2022-11-15T05:12:32;14.90;;;6.15;;
37983;SDS011;64625;50.882;4.376;2022-11-15T05:14:57;9.90;;;5.60;;
37983;SDS011;64625;50.882;4.376;2022-11-15T05:17:23;8.43;;;5.78;;
37983;SDS011;64625;50.882;4.376;2022-11-15T05:19:49;16.55;;;6.20;;
37983;SDS011;64625;50.882;4.376;2022-11-15T05:22:16;16.85;;;6.65;;
37983;SDS011;64625;50.882;4.376;2022-11-15T05:24:43;8.43;;;5.63;;
37983;SDS011;64625;50.882;4.376;2022-11-15T05:27:08;15.25;;;7.03;;
37983;SDS011;64625;50.882;4.376;2022-11-15T05:29:34;16.00;;;5.03;;
37983;SDS011;64625;50.882;4.376;2022-11-15T05:32:00;13.75;;;5.75;;
37983;SDS011;64625;50.882;4.376;2022-11-15T05:34:28;12.07;;;4.97;;
37983;SDS011;64625;50.882;4.376;2022-11-15T05:36:57;9.43;;;3.67;;
37983;SDS011;64625;50.882;4.376;2022-11-15T05:39:24;12.90;;;4.10;;
37983;SDS011;64625;50.882;4.376;2022-11-15T05:41:52;9.60;;;5.45;;
37983;SDS011;64625;50.882;4.376;2022-11-15T05:44:21;19.83;;;5.28;;
37983;SDS011;64625;50.882;4.376;2022-11-15T05:46:50;15.27;;;4.60;;
37983;SDS011;64625;50.882;4.376;2022-11-15T05:49:23;10.50;;;4.03;;
37983;SDS011;64625;50.882;4.376;2022-11-15T05:51:53;9.90;;;3.80;;
37983;SDS011;64625;50.882;4.376;2022-11-15T05:54:19;19.65;;;5.25;;
37983;SDS011;64625;50.882;4.376;2022-11-15T05:56:46;15.23;;;5.07;;
37983;SDS011;64625;50.882;4.376;2022-11-15T05:59:12;13.63;;;3.92;;
37983;SDS011;64625;50.882;4.376;2022-11-15T06:01:38;11.38;;;4.13;;
37983;SDS011;64625;50.882;4.376;2022-11-15T06:04:05;8.20;;;3.90;;
37983;SDS011;64625;50.882;4.376;2022-11-15T06:06:31;10.68;;;4.80;;
37983;SDS011;64625;50.882;4.376;2022-11-15T06:08:57;16.55;;;5.28;;
37983;SDS011;64625;50.882;4.376;2022-11-15T06:11:23;9.68;;;4.82;;
37983;SDS011;64625;50.882;4.376;2022-11-15T06:13:50;24.88;;;4.78;;
37983;SDS011;64625;50.882;4.376;2022-11-15T06:16:16;11.25;;;3.92;;
37983;SDS011;64625;50.882;4.376;2022-11-15T06:18:42;9.18;;;3.53;;
37983;SDS011;64625;50.882;4.376;2022-11-15T06:21:08;10.77;;;3.97;;
37983;SDS011;64625;50.882;4.376;2022-11-15T06:23:35;13.25;;;5.35;;
37983;SDS011;64625;50.882;4.376;2022-11-15T06:26:02;10.90;;;5.13;;
37983;SDS011;64625;50.882;4.376;2022-11-15T06:28:29;15.48;;;4.78;;
37983;SDS011;64625;50.882;4.376;2022-11-15T06:31:02;11.57;;;3.97;;
37983;SDS011;64625;50.882;4.376;2022-11-15T06:33:33;10.43;;;3.85;;
37983;SDS011;64625;50.882;4.376;2022-11-15T06:36:00;11.10;;;3.92;;
37983;SDS011;64625;50.882;4.376;2022-11-15T06:38:28;13.75;;;4.40;;
37983;SDS011;64625;50.882;4.376;2022-11-15T06:40:53;10.48;;;4.35;;
37983;SDS011;64625;50.882;4.376;2022-11-15T06:43:19;10.70;;;4.97;;
37983;SDS011;64625;50.882;4.376;2022-11-15T06:45:46;10.77;;;4.22;;
37983;SDS011;64625;50.882;4.376;2022-11-15T06:48:12;18.90;;;6.97;;
37983;SDS011;64625;50.882;4.376;2022-11-15T06:50:39;12.30;;;4.55;;
37983;SDS011;64625;50.882;4.376;2022-11-15T06:53:05;25.20;;;5.15;;
37983;SDS011;64625;50.882;4.376;2022-11-15T06:55:31;15.43;;;4.70;;
37983;SDS011;64625;50.882;4.376;2022-11-15T06:57:57;13.48;;;3.90;;
37983;SDS011;64625;50.882;4.376;2022-11-15T07:00:22;8.05;;;3.78;;
37983;SDS011;64625;50.882;4.376;2022-11-15T07:02:48;12.13;;;4.82;;
37983;SDS011;64625;50.882;4.376;2022-11-15T07:05:14;18.55;;;4.07;;
37983;SDS011;64625;50.882;4.376;2022-11-15T07:07:40;11.98;;;3.72;;
37983;SDS011;64625;50.882;4.376;2022-11-15T07:10:07;13.98;;;4.18;;
37983;SDS011;64625;50.882;4.376;2022-11-15T07:12:33;13.98;;;3.70;;
37983;SDS011;64625;50.882;4.376;2022-11-15T07:15:00;8.40;;;3.47;;
37983;SDS011;64625;50.882;4.376;2022-11-15T07:17:25;11.50;;;5.82;;
37983;SDS011;64625;50.882;4.376;2022-11-15T07:19:51;9.27;;;3.88;;
37983;SDS011;64625;50.882;4.376;2022-11-15T07:22:17;7.82;;;3.83;;
37983;SDS011;64625;50.882;4.376;2022-11-15T07:24:43;7.97;;;3.60;;
37983;SDS011;64625;50.882;4.376;2022-11-15T07:27:09;14.82;;;4.03;;
37983;SDS011;64625;50.882;4.376;2022-11-15T07:29:35;7.10;;;3.25;;
37983;SDS011;64625;50.882;4.376;2022-11-15T07:32:00;6.53;;;3.05;;
37983;SDS011;64625;50.882;4.376;2022-11-15T07:34:26;7.15;;;3.58;;
37983;SDS011;64625;50.882;4.376;2022-11-15T07:36:52;21.35;;;4.22;;
37983;SDS011;64625;50.882;4.376;2022-11-15T07:39:18;11.77;;;3.90;;
37983;SDS011;64625;50.882;4.376;2022-11-15T07:41:44;5.53;;;3.70;;
37983;SDS011;64625;50.882;4.376;2022-11-15T07:44:11;14.32;;;6.18;;
37983;SDS011;64625;50.882;4.376;2022-11-15T07:46:37;8.10;;;3.90;;
37983;SDS011;64625;50.882;4.376;2022-11-15T07:49:03;7.50;;;3.83;;
37983;SDS011;64625;50.882;4.376;2022-11-15T07:51:29;7.57;;;3.33;;
37983;SDS011;64625;50.882;4.376;2022-11-15T07:53:54;9.93;;;3.40;;
37983;SDS011;64625;50.882;4.376;2022-11-15T07:56:20;9.48;;;3.60;;
37983;SDS011;64625;50.882;4.376;2022-11-15T07:58:46;12.15;;;3.53;;
37983;SDS011;64625;50.882;4.376;2022-11-15T08:01:12;7.32;;;3.40;;
37983;SDS011;64625;50.882;4.376;2022-11-15T08:03:38;10.30;;;4.25;;
37983;SDS011;64625;50.882;4.376;2022-11-15T08:06:04;7.28;;;3.10;;
37983;SDS011;64625;50.882;4.376;2022-11-15T08:08:30;12.65;;;4.07;;
37983;SDS011;64625;50.882;4.376;2022-11-15T08:10:59;8.23;;;3.58;;
37983;SDS011;64625;50.882;4.376;2022-11-15T08:13:25;15.70;;;4.53;;
37983;SDS011;64625;50.882;4.376;2022-11-15T08:15:51;11.10;;;3.38;;
37983;SDS011;64625;50.882;4.376;2022-11-15T08:18:17;10.80;;;3.47;;
37983;SDS011;64625;50.882;4.376;2022-11-15T08:20:43;7.82;;;3.65;;
37983;SDS011;64625;50.882;4.376;2022-11-15T08:23:11;12.15;;;3.38;;
37983;SDS011;64625;50.882;4.376;2022-11-15T08:25:38;12.20;;;4.70;;
37983;SDS011;64625;50.882;4.376;2022-11-15T08:28:05;10.07;;;4.10;;
37983;SDS011;64625;50.882;4.376;2022-11-15T08:30:36;5.57;;;2.20;;
37983;SDS011;64625;50.882;4.376;2022-11-15T08:33:04;6.15;;;2.80;;
37983;SDS011;64625;50.882;4.376;2022-11-15T08:35:30;8.45;;;3.05;;
37983;SDS011;64625;50.882;4.376;2022-11-15T08:37:57;30.15;;;18.70;;
37983;SDS011;64625;50.882;4.376;2022-11-15T08:40:23;10.80;;;2.53;;
37983;SDS011;64625;50.882;4.376;2022-11-15T08:42:49;13.32;;;2.88;;
37983;SDS011;64625;50.882;4.376;2022-11-15T08:45:16;14.63;;;4.53;;
37983;SDS011;64625;50.882;4.376;2022-11-15T08:47:41;8.55;;;2.15;;
37983;SDS011;64625;50.882;4.376;2022-11-15T08:50:08;7.97;;;2.33;;
37983;SDS011;64625;50.882;4.376;2022-11-15T08:52:34;6.15;;;2.03;;
37983;SDS011;64625;50.882;4.376;2022-11-15T08:54:59;11.80;;;3.65;;
37983;SDS011;64625;50.882;4.376;2022-11-15T08:57:29;12.00;;;2.50;;
37983;SDS011;64625;50.882;4.376;2022-11-15T08:59:56;11.70;;;2.90;;
37983;SDS011;64625;50.882;4.376;2022-11-15T09:02:22;5.75;;;2.85;;
37983;SDS011;64625;50.882;4.376;2022-11-15T09:04:48;10.02;;;3.10;;
37983;SDS011;64625;50.882;4.376;2022-11-15T09:07:14;9.20;;;2.63;;
37983;SDS011;64625;50.882;4.376;2022-11-15T09:09:40;4.40;;;2.30;;
37983;SDS011;64625;50.882;4.376;2022-11-15T09:12:06;5.88;;;2.55;;
37983;SDS011;64625;50.882;4.376;2022-11-15T09:14:33;10.00;;;2.88;;
37983;SDS011;64625;50.882;4.376;2022-11-15T09:16:59;6.10;;;2.33;;
37983;SDS011;64625;50.882;4.376;2022-11-15T09:19:26;22.05;;;3.00;;
37983;SDS011;64625;50.882;4.376;2022-11-15T09:21:53;9.55;;;2.35;;
37983;SDS011;64625;50.882;4.376;2022-11-15T09:24:19;10.10;;;2.30;;
37983;SDS011;64625;50.882;4.376;2022-11-15T09:26:49;7.72;;;1.95;;
37983;SDS011;64625;50.882;4.376;2022-11-15T09:29:16;8.23;;;2.50;;
37983;SDS011;64625;50.882;4.376;2022-11-15T09:31:42;14.52;;;2.30;;
37983;SDS011;64625;50.882;4.376;2022-11-15T09:34:10;12.85;;;2.63;;
37983;SDS011;64625;50.882;4.376;2022-11-15T09:36:36;18.52;;;2.50;;
37983;SDS011;64625;50.882;4.376;2022-11-15T09:39:02;13.10;;;2.75;;
37983;SDS011;64625;50.882;4.376;2022-11-15T09:49:29;12.35;;;2.17;;
37983;SDS011;64625;50.882;4.376;2022-11-15T09:51:56;8.75;;;2.90;;
37983;SDS011;64625;50.882;4.376;2022-11-15T10:05:23;5.53;;;1.63;;
37983;SDS011;64625;50.882;4.376;2022-11-15T10:10:35;8.00;;;2.28;;
37983;SDS011;64625;50.882;4.376;2022-11-15T10:13:12;10.38;;;1.98;;
37983;SDS011;64625;50.882;4.376;2022-11-15T10:15:48;10.60;;;1.98;;
37983;SDS011;64625;50.882;4.376;2022-11-15T10:18:19;15.35;;;2.30;;
37983;SDS011;64625;50.882;4.376;2022-11-15T10:20:58;9.00;;;2.13;;
37983;SDS011;64625;50.882;4.376;2022-11-15T10:23:25;13.18;;;4.10;;
37983;SDS011;64625;50.882;4.376;2022-11-15T10:25:54;9.52;;;2.42;;
37983;SDS011;64625;50.882;4.376;2022-11-15T10:28:27;10.30;;;1.90;;
37983;SDS011;64625;50.882;4.376;2022-11-15T10:30:55;8.15;;;1.95;;
37983;SDS011;64625;50.882;4.376;2022-11-15T10:33:36;22.75;;;2.60;;
37983;SDS011;64625;50.882;4.376;2022-11-15T10:44:41;11.50;;;2.25;;
37983;SDS011;64625;50.882;4.376;2022-11-15T10:46:43;13.30;;;2.60;;
37983;SDS011;64625;50.882;4.376;2022-11-15T10:49:24;10.85;;;2.20;;
37983;SDS011;64625;50.882;4.376;2022-11-15T10:51:53;7.55;;;1.85;;
37983;SDS011;64625;50.882;4.376;2022-11-15T10:57:00;6.82;;;2.33;;
37983;SDS011;64625;50.882;4.376;2022-11-15T10:59:52;15.43;;;2.45;;
37983;SDS011;64625;50.882;4.376;2022-11-15T11:02:35;14.18;;;2.65;;
37983;SDS011;64625;50.882;4.376;2022-11-15T11:05:02;8.00;;;1.48;;
37983;SDS011;64625;50.882;4.376;2022-11-15T11:07:31;15.73;;;3.80;;
37983;SDS011;64625;50.882;4.376;2022-11-15T11:12:44;10.05;;;2.65;;
37983;SDS011;64625;50.882;4.376;2022-11-15T11:15:14;9.45;;;2.30;;
37983;SDS011;64625;50.882;4.376;2022-11-15T11:36:34;4.63;;;1.80;;
37983;SDS011;64625;50.882;4.376;2022-11-15T11:45:10;11.38;;;2.28;;
37983;SDS011;64625;50.882;4.376;2022-11-15T11:47:51;8.77;;;1.50;;
37983;SDS011;64625;50.882;4.376;2022-11-15T11:50:26;11.00;;;2.13;;
37983;SDS011;64625;50.882;4.376;2022-11-15T11:52:57;9.30;;;1.48;;
37983;SDS011;64625;50.882;4.376;2022-11-15T11:55:24;9.63;;;1.95;;
37983;SDS011;64625;50.882;4.376;2022-11-15T11:58:02;5.68;;;1.75;;
37983;SDS011;64625;50.882;4.376;2022-11-15T12:03:38;8.07;;;1.83;;
37983;SDS011;64625;50.882;4.376;2022-11-15T12:08:49;5.70;;;1.85;;
37983;SDS011;64625;50.882;4.376;2022-11-15T12:14:17;6.75;;;2.13;;
37983;SDS011;64625;50.882;4.376;2022-11-15T12:17:09;8.93;;;2.53;;
37983;SDS011;64625;50.882;4.376;2022-11-15T12:19:36;8.23;;;1.40;;
37983;SDS011;64625;50.882;4.376;2022-11-15T12:22:04;12.50;;;2.63;;
37983;SDS011;64625;50.882;4.376;2022-11-15T12:24:46;10.80;;;2.25;;
37983;SDS011;64625;50.882;4.376;2022-11-15T12:27:40;7.45;;;2.33;;
37983;SDS011;64625;50.882;4.376;2022-11-15T12:30:13;12.02;;;2.83;;
37983;SDS011;64625;50.882;4.376;2022-11-15T12:33:02;5.30;;;2.17;;
37983;SDS011;64625;50.882;4.376;2022-11-15T12:35:36;11.15;;;2.10;;
37983;SDS011;64625;50.882;4.376;2022-11-15T12:38:11;5.75;;;2.08;;
37983;SDS011;64625;50.882;4.376;2022-11-15T12:40:38;8.80;;;1.58;;
37983;SDS011;64625;50.882;4.376;2022-11-15T12:43:46;7.32;;;1.92;;
37983;SDS011;64625;50.882;4.376;2022-11-15T12:46:22;12.50;;;2.08;;
37983;SDS011;64625;50.882;4.376;2022-11-15T12:48:59;11.48;;;1.77;;
37983;SDS011;64625;50.882;4.376;2022-11-15T13:07:57;3.83;;;1.30;;
37983;SDS011;64625;50.882;4.376;2022-11-15T13:12:59;4.85;;;1.65;;
37983;SDS011;64625;50.882;4.376;2022-11-15T13:15:31;8.88;;;1.60;;
37983;SDS011;64625;50.882;4.376;2022-11-15T13:20:58;6.97;;;1.67;;
37983;SDS011;64625;50.882;4.376;2022-11-15T13:23:25;7.57;;;1.75;;
37983;SDS011;64625;50.882;4.376;2022-11-15T13:28:42;5.95;;;1.67;;
37983;SDS011;64625;50.882;4.376;2022-11-15T13:33:47;6.28;;;1.23;;
37983;SDS011;64625;50.882;4.376;2022-11-15T13:36:15;2.67;;;1.38;;
37983;SDS011;64625;50.882;4.376;2022-11-15T13:41:56;7.82;;;1.75;;
37983;SDS011;64625;50.882;4.376;2022-11-15T13:44:23;5.18;;;2.03;;
37983;SDS011;64625;50.882;4.376;2022-11-15T13:47:01;5.90;;;1.73;;
37983;SDS011;64625;50.882;4.376;2022-11-15T13:49:42;7.32;;;1.80;;
37983;SDS011;64625;50.882;4.376;2022-11-15T13:52:10;13.52;;;2.35;;
37983;SDS011;64625;50.882;4.376;2022-11-15T13:54:42;3.75;;;1.50;;
37983;SDS011;64625;50.882;4.376;2022-11-15T13:57:13;4.63;;;1.95;;
37983;SDS011;64625;50.882;4.376;2022-11-15T13:59:55;4.90;;;1.63;;
37983;SDS011;64625;50.882;4.376;2022-11-15T14:07:33;6.50;;;1.98;;
37983;SDS011;64625;50.882;4.376;2022-11-15T14:10:16;15.05;;;2.25;;
37983;SDS011;64625;50.882;4.376;2022-11-15T14:12:56;5.78;;;1.13;;
37983;SDS011;64625;50.882;4.376;2022-11-15T14:17:59;6.10;;;1.63;;
37983;SDS011;64625;50.882;4.376;2022-11-15T14:22:55;2.17;;;1.17;;
37983;SDS011;64625;50.882;4.376;2022-11-15T14:25:26;20.52;;;3.05;;
37983;SDS011;64625;50.882;4.376;2022-11-15T14:28:14;7.93;;;1.98;;
37983;SDS011;64625;50.882;4.376;2022-11-15T14:30:41;4.30;;;1.90;;
37983;SDS011;64625;50.882;4.376;2022-11-15T14:33:17;5.07;;;1.70;;
37983;SDS011;64625;50.882;4.376;2022-11-15T14:35:46;4.60;;;2.17;;
37983;SDS011;64625;50.882;4.376;2022-11-15T14:38:13;10.93;;;2.25;;
37983;SDS011;64625;50.882;4.376;2022-11-15T14:40:40;4.07;;;1.50;;
37983;SDS011;64625;50.882;4.376;2022-11-15T14:43:08;6.75;;;1.95;;
37983;SDS011;64625;50.882;4.376;2022-11-15T14:45:36;4.72;;;1.90;;
37983;SDS011;64625;50.882;4.376;2022-11-15T14:48:02;4.72;;;2.72;;
37983;SDS011;64625;50.882;4.376;2022-11-15T14:50:28;6.00;;;2.10;;
37983;SDS011;64625;50.882;4.376;2022-11-15T14:52:54;4.53;;;2.53;;
37983;SDS011;64625;50.882;4.376;2022-11-15T14:55:25;7.32;;;1.80;;
37983;SDS011;64625;50.882;4.376;2022-11-15T14:57:54;4.70;;;1.77;;
37983;SDS011;64625;50.882;4.376;2022-11-15T15:00:20;6.40;;;2.00;;
37983;SDS011;64625;50.882;4.376;2022-11-15T15:02:47;12.45;;;2.70;;
37983;SDS011;64625;50.882;4.376;2022-11-15T15:05:18;3.55;;;2.03;;
37983;SDS011;64625;50.882;4.376;2022-11-15T15:07:45;3.88;;;1.70;;
37983;SDS011;64625;50.882;4.376;2022-11-15T15:10:12;3.95;;;2.15;;
37983;SDS011;64625;50.882;4.376;2022-11-15T15:12:41;3.42;;;1.90;;
37983;SDS011;64625;50.882;4.376;2022-11-15T15:15:15;4.55;;;1.83;;
37983;SDS011;64625;50.882;4.376;2022-11-15T15:17:43;6.85;;;2.20;;
37983;SDS011;64625;50.882;4.376;2022-11-15T15:20:09;4.35;;;1.83;;
37983;SDS011;64625;50.882;4.376;2022-11-15T15:22:36;3.03;;;1.70;;
37983;SDS011;64625;50.882;4.376;2022-11-15T15:25:07;10.32;;;2.50;;
37983;SDS011;64625;50.882;4.376;2022-11-15T15:27:52;8.82;;;2.40;;
37983;SDS011;64625;50.882;4.376;2022-11-15T15:30:19;4.10;;;2.38;;
37983;SDS011;64625;50.882;4.376;2022-11-15T15:32:45;3.75;;;2.00;;
37983;SDS011;64625;50.882;4.376;2022-11-15T15:35:13;8.38;;;2.33;;
37983;SDS011;64625;50.882;4.376;2022-11-15T15:37:40;9.13;;;2.95;;
37983;SDS011;64625;50.882;4.376;2022-11-15T15:40:18;5.20;;;2.00;;
37983;SDS011;64625;50.882;4.376;2022-11-15T15:42:45;4.57;;;1.80;;
37983;SDS011;64625;50.882;4.376;2022-11-15T15:45:12;1.98;;;1.60;;
37983;SDS011;64625;50.882;4.376;2022-11-15T15:47:38;2.17;;;1.95;;
37983;SDS011;64625;50.882;4.376;2022-11-15T15:50:12;9.68;;;2.65;;
37983;SDS011;64625;50.882;4.376;2022-11-15T15:52:49;8.50;;;2.17;;
37983;SDS011;64625;50.882;4.376;2022-11-15T15:57:46;7.53;;;2.00;;
37983;SDS011;64625;50.882;4.376;2022-11-15T16:00:12;6.30;;;2.15;;
37983;SDS011;64625;50.882;4.376;2022-11-15T16:02:39;7.47;;;2.83;;
37983;SDS011;64625;50.882;4.376;2022-11-15T16:05:05;4.13;;;2.55;;
37983;SDS011;64625;50.882;4.376;2022-11-15T16:07:32;6.97;;;3.13;;
37983;SDS011;64625;50.882;4.376;2022-11-15T16:09:58;6.45;;;2.38;;
37983;SDS011;64625;50.882;4.376;2022-11-15T16:12:28;9.80;;;2.97;;
37983;SDS011;64625;50.882;4.376;2022-11-15T16:14:54;5.80;;;2.90;;
37983;SDS011;64625;50.882;4.376;2022-11-15T16:17:21;8.25;;;2.67;;
37983;SDS011;64625;50.882;4.376;2022-11-15T16:19:50;6.28;;;2.30;;
37983;SDS011;64625;50.882;4.376;2022-11-15T16:22:16;9.13;;;3.25;;
37983;SDS011;64625;50.882;4.376;2022-11-15T16:24:41;5.65;;;2.92;;
37983;SDS011;64625;50.882;4.376;2022-11-15T16:27:25;7.97;;;3.33;;
37983;SDS011;64625;50.882;4.376;2022-11-15T16:29:51;8.50;;;2.80;;
37983;SDS011;64625;50.882;4.376;2022-11-15T16:32:17;6.78;;;2.83;;
37983;SDS011;64625;50.882;4.376;2022-11-15T16:34:43;3.22;;;2.03;;
37983;SDS011;64625;50.882;4.376;2022-11-15T16:37:42;2.28;;;2.08;;
37983;SDS011;64625;50.882;4.376;2022-11-15T16:40:00;4.32;;;2.95;;
37983;SDS011;64625;50.882;4.376;2022-11-15T16:42:26;5.15;;;2.90;;
37983;SDS011;64625;50.882;4.376;2022-11-15T16:44:52;2.95;;;2.22;;
37983;SDS011;64625;50.882;4.376;2022-11-15T16:47:18;4.63;;;2.80;;
37983;SDS011;64625;50.882;4.376;2022-11-15T16:49:44;5.10;;;2.50;;
37983;SDS011;64625;50.882;4.376;2022-11-15T16:52:10;7.35;;;2.97;;
37983;SDS011;64625;50.882;4.376;2022-11-15T16:54:37;4.45;;;2.05;;
37983;SDS011;64625;50.882;4.376;2022-11-15T16:57:02;6.50;;;3.50;;
37983;SDS011;64625;50.882;4.376;2022-11-15T16:59:28;11.48;;;2.85;;
37983;SDS011;64625;50.882;4.376;2022-11-15T17:01:56;5.47;;;2.85;;
37983;SDS011;64625;50.882;4.376;2022-11-15T17:04:23;4.28;;;3.00;;
37983;SDS011;64625;50.882;4.376;2022-11-15T17:06:49;5.63;;;3.40;;
37983;SDS011;64625;50.882;4.376;2022-11-15T17:09:18;5.90;;;2.95;;
37983;SDS011;64625;50.882;4.376;2022-11-15T17:11:48;3.88;;;2.97;;
37983;SDS011;64625;50.882;4.376;2022-11-15T17:14:14;7.57;;;4.45;;
37983;SDS011;64625;50.882;4.376;2022-11-15T17:16:40;5.28;;;2.80;;
37983;SDS011;64625;50.882;4.376;2022-11-15T17:19:15;5.20;;;3.65;;
37983;SDS011;64625;50.882;4.376;2022-11-15T17:21:42;6.57;;;3.50;;
37983;SDS011;64625;50.882;4.376;2022-11-15T17:24:09;7.43;;;3.60;;
37983;SDS011;64625;50.882;4.376;2022-11-15T17:26:35;14.32;;;4.43;;
37983;SDS011;64625;50.882;4.376;2022-11-15T17:29:03;5.80;;;3.80;;
37983;SDS011;64625;50.882;4.376;2022-11-15T17:31:32;8.05;;;4.05;;